createdAt,value
2023-04-19T00:00:08.236Z,52.62
2023-04-19T00:02:36.574Z,51.68
2023-04-19T00:05:05.311Z,50.93
2023-04-19T00:07:33.710Z,52.55
2023-04-19T00:10:01.624Z,51.67
2023-04-19T00:12:29.586Z,52.70
2023-04-19T00:14:58.826Z,51.16
2023-04-19T00:17:27.300Z,51.42
2023-04-19T00:19:55.233Z,51.72
2023-04-19T00:22:23.129Z,51.84
2023-04-19T00:24:51.036Z,51.65
2023-04-19T00:27:19.055Z,51.50
2023-04-19T00:29:47.002Z,50.15
2023-04-19T00:32:16.484Z,51.43
2023-04-19T00:34:44.377Z,50.37
2023-04-19T00:37:12.310Z,51.60
2023-04-19T00:39:40.618Z,50.59
2023-04-19T00:42:08.570Z,51.36
2023-04-19T00:44:36.566Z,52.09
2023-04-19T00:47:04.545Z,50.64
2023-04-19T00:49:33.846Z,50.04
2023-04-19T00:52:01.847Z,49.79
2023-04-19T00:54:29.848Z,50.63
2023-04-19T00:56:58.414Z,49.61
2023-04-19T00:59:26.356Z,49.86
2023-04-19T01:01:54.845Z,49.58
2023-04-19T01:04:23.414Z,49.39
2023-04-19T01:06:53.265Z,48.91
2023-04-19T01:09:21.190Z,49.54
2023-04-19T01:11:49.107Z,50.10
2023-04-19T01:14:17.216Z,50.49
2023-04-19T01:16:48.009Z,50.90
2023-04-19T01:19:16.799Z,50.41
2023-04-19T01:21:46.401Z,49.84
2023-04-19T01:24:16.094Z,49.36
2023-04-19T01:26:44.212Z,49.67
2023-04-19T01:29:12.150Z,48.90
2023-04-19T01:31:40.068Z,49.18
2023-04-19T01:34:08.100Z,48.25
2023-04-19T01:36:36.063Z,49.00
2023-04-19T01:39:03.964Z,49.41
2023-04-19T01:41:33.218Z,49.50
2023-04-19T01:44:01.743Z,48.48
2023-04-19T01:46:29.856Z,48.61
2023-04-19T01:48:57.787Z,48.16
2023-04-19T01:51:25.910Z,47.85
2023-04-19T01:53:53.823Z,47.51
2023-04-19T01:56:23.944Z,47.56
2023-04-19T01:58:53.355Z,46.87
2023-04-19T02:01:21.395Z,46.90
2023-04-19T02:03:49.673Z,46.55
2023-04-19T02:06:17.664Z,47.43
2023-04-19T02:08:45.596Z,47.39
2023-04-19T02:11:15.469Z,47.74
2023-04-19T02:13:44.067Z,46.34
2023-04-19T02:16:13.461Z,47.63
2023-04-19T02:18:41.593Z,46.66
2023-04-19T02:21:10.973Z,46.62
2023-04-19T02:23:39.034Z,47.07
2023-04-19T02:26:07.037Z,45.82
2023-04-19T02:28:35.840Z,45.64
2023-04-19T02:31:06.647Z,45.80
2023-04-19T02:33:37.449Z,45.30
2023-04-19T02:36:05.594Z,45.82
2023-04-19T02:38:34.785Z,47.04
2023-04-19T02:41:04.472Z,46.61
2023-04-19T02:43:32.551Z,46.90
2023-04-19T02:46:00.480Z,46.15
2023-04-19T02:48:28.406Z,45.88
2023-04-19T02:50:57.746Z,45.75
2023-04-19T02:53:25.682Z,45.53
2023-04-19T02:55:53.748Z,46.94
2023-04-19T02:58:21.893Z,45.09
2023-04-19T03:01:16.138Z,44.81
2023-04-19T03:03:44.358Z,44.87
2023-04-19T03:06:13.851Z,45.04
2023-04-19T03:08:41.720Z,45.48
2023-04-19T03:11:09.584Z,45.43
2023-04-19T03:13:37.635Z,45.65
2023-04-19T03:16:06.275Z,44.74
2023-04-19T03:18:34.246Z,45.05
2023-04-19T03:21:05.192Z,45.01
2023-04-19T03:23:42.722Z,44.97
2023-04-19T03:26:10.688Z,44.26
2023-04-19T03:28:43.138Z,44.60
2023-04-19T03:31:31.506Z,45.92
2023-04-19T03:34:00.318Z,43.89
2023-04-19T03:36:34.733Z,43.38
2023-04-19T03:39:05.551Z,43.55
2023-04-19T03:41:33.938Z,43.63
2023-04-19T03:44:18.979Z,43.52
2023-04-19T03:46:48.790Z,44.67
2023-04-19T03:49:20.503Z,44.55
2023-04-19T03:51:53.497Z,43.90
2023-04-19T03:54:22.779Z,43.54
2023-04-19T03:56:50.657Z,43.15
2023-04-19T03:59:18.662Z,42.51
2023-04-19T04:01:47.464Z,42.75
2023-04-19T04:04:16.095Z,42.21
2023-04-19T04:06:45.587Z,43.08
2023-04-19T04:09:16.303Z,42.73
2023-04-19T04:11:46.054Z,44.13
2023-04-19T04:14:14.265Z,42.73
2023-04-19T04:16:42.745Z,42.86
2023-04-19T04:19:11.020Z,42.23
2023-04-19T04:21:41.940Z,42.46
2023-04-19T04:24:10.732Z,42.97
2023-04-19T04:26:47.079Z,42.30
2023-04-19T04:29:21.797Z,41.52
2023-04-19T04:31:51.908Z,42.21
2023-04-19T04:34:24.672Z,43.09
2023-04-19T04:36:59.627Z,42.97
2023-04-19T04:39:27.945Z,42.72
2023-04-19T04:41:57.731Z,42.67
2023-04-19T04:44:25.996Z,42.09
2023-04-19T04:46:54.230Z,41.98
2023-04-19T04:49:26.554Z,42.61
2023-04-19T04:51:54.445Z,42.63
2023-04-19T04:54:23.070Z,42.42
2023-04-19T04:56:51.271Z,42.38
2023-04-19T04:59:20.687Z,43.32
2023-04-19T05:01:50.846Z,43.45
2023-04-19T05:04:19.919Z,43.55
2023-04-19T05:06:48.068Z,42.86
2023-04-19T05:09:29.381Z,42.71
2023-04-19T05:11:58.101Z,43.05
2023-04-19T05:14:27.461Z,42.66
2023-04-19T05:16:55.802Z,42.34
2023-04-19T05:19:23.746Z,42.17
2023-04-19T05:21:58.014Z,42.02
2023-04-19T05:24:26.077Z,41.18
2023-04-19T05:26:54.519Z,41.86
2023-04-19T05:29:23.035Z,41.09
2023-04-19T05:31:56.699Z,40.54
2023-04-19T05:34:37.683Z,40.87
2023-04-19T05:37:06.606Z,40.57
2023-04-19T05:39:34.550Z,40.09
2023-04-19T05:42:02.954Z,40.03
2023-04-19T05:44:30.880Z,40.23
2023-04-19T05:47:00.664Z,39.92
2023-04-19T05:49:51.367Z,40.43
2023-04-19T05:52:26.122Z,38.38
2023-04-19T05:54:56.852Z,38.04
2023-04-19T05:57:24.900Z,37.39
2023-04-19T05:59:52.876Z,38.41
2023-04-19T06:02:26.338Z,39.00
2023-04-19T06:04:54.510Z,39.58
2023-04-19T06:07:31.703Z,39.35
2023-04-19T06:10:02.350Z,38.44
2023-04-19T06:12:30.378Z,38.67
2023-04-19T06:14:58.330Z,37.26
2023-04-19T06:17:28.514Z,37.59
2023-04-19T06:19:56.471Z,36.83
2023-04-19T06:22:24.581Z,36.59
2023-04-19T06:24:52.457Z,36.28
2023-04-19T06:27:20.393Z,36.37
2023-04-19T06:29:49.873Z,35.67
2023-04-19T06:32:19.375Z,35.69
2023-04-19T06:34:48.737Z,34.36
2023-04-19T06:37:16.665Z,35.12
2023-04-19T06:39:44.559Z,34.33
2023-04-19T06:42:12.901Z,34.19
2023-04-19T06:44:40.923Z,35.00
2023-04-19T06:47:08.783Z,34.41
2023-04-19T06:49:36.628Z,34.17
2023-04-19T06:52:06.099Z,33.75
2023-04-19T06:54:33.993Z,33.14
2023-04-19T06:57:02.677Z,33.43
2023-04-19T06:59:32.322Z,32.04
2023-04-19T07:02:00.313Z,33.20
2023-04-19T07:04:28.477Z,32.93
2023-04-19T07:06:56.468Z,32.31
2023-04-19T07:09:25.763Z,32.78
2023-04-19T07:11:53.738Z,32.47
2023-04-19T07:14:21.756Z,33.34
2023-04-19T07:16:50.850Z,31.98
2023-04-19T07:19:20.679Z,32.43
2023-04-19T07:21:48.574Z,31.99
2023-04-19T07:24:17.514Z,32.21
2023-04-19T07:26:47.001Z,31.86
2023-04-19T07:29:15.097Z,32.23
2023-04-19T07:31:43.094Z,32.12
2023-04-19T07:34:17.243Z,32.24
2023-04-19T07:36:45.441Z,31.90
2023-04-19T07:39:13.779Z,31.79
2023-04-19T07:41:41.668Z,31.85
2023-04-19T07:44:11.580Z,31.20
2023-04-19T07:46:39.521Z,32.17
2023-04-19T07:49:07.460Z,31.53
2023-04-19T07:51:35.435Z,31.46
2023-04-19T07:54:03.559Z,31.17
2023-04-19T07:56:31.686Z,31.85
2023-04-19T07:59:07.616Z,31.03
2023-04-19T08:01:38.256Z,31.74
2023-04-19T08:04:06.677Z,31.99
2023-04-19T08:06:34.867Z,31.29
2023-04-19T08:09:03.075Z,31.84
2023-04-19T08:11:31.052Z,32.59
2023-04-19T08:14:26.860Z,32.05
2023-04-19T08:19:19.168Z,32.78
2023-04-19T08:21:47.166Z,33.32
2023-04-19T08:24:15.323Z,32.06
2023-04-19T08:26:43.503Z,32.28
2023-04-19T08:29:11.386Z,32.79
2023-04-19T08:31:39.365Z,32.54
2023-04-19T08:34:08.652Z,33.25
2023-04-19T08:36:43.363Z,32.13
2023-04-19T08:39:18.045Z,32.20
2023-04-19T08:42:02.714Z,31.65
2023-04-19T08:44:36.835Z,31.56
2023-04-19T08:47:08.237Z,30.87
2023-04-19T08:49:43.270Z,29.96
2023-04-19T08:52:14.767Z,29.60
2023-04-19T08:54:43.571Z,28.89
2023-04-19T08:57:12.452Z,29.03
2023-04-19T08:59:40.699Z,30.70
2023-04-19T09:02:08.710Z,29.65
2023-04-19T09:04:38.355Z,30.43
2023-04-19T09:07:08.255Z,29.59
2023-04-19T09:09:45.753Z,29.41
2023-04-19T09:12:23.741Z,29.13
2023-04-19T09:15:01.334Z,27.66
2023-04-19T09:17:30.535Z,29.01
2023-04-19T09:20:00.298Z,29.02
2023-04-19T09:22:28.251Z,29.21
2023-04-19T09:27:29.266Z,29.34
2023-04-19T09:29:58.378Z,27.96
2023-04-19T09:32:27.124Z,28.62
2023-04-19T09:34:56.735Z,27.64
2023-04-19T09:37:51.471Z,27.33
2023-04-19T09:40:23.429Z,28.44
2023-04-19T09:48:03.359Z,27.73
2023-04-19T09:50:32.186Z,27.09
2023-04-19T09:53:03.643Z,27.57
2023-04-19T09:55:38.555Z,27.67
2023-04-19T09:58:16.830Z,26.71
2023-04-19T10:00:49.043Z,26.45
2023-04-19T10:03:22.069Z,26.93
2023-04-19T10:05:51.405Z,26.30
2023-04-19T10:08:21.207Z,26.26
2023-04-19T10:10:54.900Z,25.53
2023-04-19T10:13:26.705Z,25.12
2023-04-19T10:15:59.369Z,24.34
2023-04-19T10:18:36.753Z,24.71
2023-04-19T10:21:08.816Z,24.85
2023-04-19T10:23:38.602Z,25.00
2023-04-19T10:26:07.350Z,26.49
2023-04-19T10:28:37.913Z,25.38
2023-04-19T10:31:06.408Z,25.39
2023-04-19T10:33:36.859Z,25.25
2023-04-19T10:36:05.837Z,24.31
2023-04-19T10:38:41.416Z,26.71
2023-04-19T10:41:16.897Z,24.87
2023-04-19T10:43:47.687Z,24.20
2023-04-19T10:46:17.970Z,24.29
2023-04-19T10:48:54.551Z,26.31
2023-04-19T10:51:24.523Z,22.70
2023-04-19T10:53:59.180Z,21.11
2023-04-19T10:57:11.177Z,21.32
2023-04-19T10:59:40.431Z,20.66
2023-04-19T11:02:29.463Z,19.41
2023-04-19T11:05:06.916Z,19.45
2023-04-19T11:07:39.891Z,18.64
2023-04-19T11:10:11.651Z,18.18
2023-04-19T11:12:44.975Z,17.56
2023-04-19T11:15:12.941Z,17.93
2023-04-19T11:17:42.521Z,18.15
2023-04-19T11:20:11.876Z,18.35
2023-04-19T11:22:41.643Z,17.53
2023-04-19T11:25:13.116Z,18.12
2023-04-19T11:27:42.842Z,17.79
2023-04-19T11:30:13.057Z,18.64
2023-04-19T11:32:46.900Z,18.62
2023-04-19T11:35:15.436Z,18.32
2023-04-19T11:37:43.321Z,17.09
2023-04-19T11:40:16.750Z,17.25
2023-04-19T11:42:45.074Z,17.23
2023-04-19T11:45:25.825Z,15.58
2023-04-19T11:47:57.539Z,18.12
2023-04-19T11:50:34.275Z,15.87
2023-04-19T11:53:11.645Z,15.53
2023-04-19T11:55:43.911Z,15.84
2023-04-19T11:58:25.115Z,14.68
2023-04-19T12:00:53.098Z,13.67
2023-04-19T12:03:26.157Z,16.48
2023-04-19T12:05:58.944Z,17.82
2023-04-19T12:08:34.972Z,16.25
2023-04-19T12:11:05.622Z,15.19
2023-04-19T12:13:34.255Z,14.83
2023-04-19T12:16:02.669Z,13.56
2023-04-19T12:18:44.679Z,14.76
2023-04-19T12:21:13.720Z,14.04
2023-04-19T12:23:41.755Z,15.99
2023-04-19T12:26:11.591Z,13.59
2023-04-19T12:28:39.590Z,13.31
2023-04-19T12:31:07.501Z,13.16
2023-04-19T12:33:35.444Z,11.64
2023-04-19T12:36:03.393Z,11.49
2023-04-19T12:38:31.343Z,11.43
2023-04-19T12:40:59.309Z,11.67
2023-04-19T12:43:30.089Z,13.29
2023-04-19T12:45:58.360Z,12.51
2023-04-19T12:48:26.393Z,12.93
2023-04-19T12:50:55.041Z,11.95
2023-04-19T12:53:24.266Z,12.37
2023-04-19T12:55:52.238Z,11.05
2023-04-19T12:58:21.316Z,12.29
2023-04-19T13:00:50.712Z,11.34
2023-04-19T13:03:18.958Z,11.84
2023-04-19T13:05:47.295Z,11.30
2023-04-19T13:08:15.146Z,10.65
2023-04-19T13:10:54.744Z,11.21
2023-04-19T13:13:22.858Z,10.67
2023-04-19T13:15:52.106Z,10.15
2023-04-19T13:18:20.390Z,10.38
2023-04-19T13:20:48.844Z,10.14
2023-04-19T13:23:16.792Z,10.63
2023-04-19T13:25:44.703Z,10.70
2023-04-19T13:28:12.594Z,10.21
2023-04-19T13:30:41.055Z,9.61
2023-04-19T13:33:10.415Z,11.97
2023-04-19T13:35:38.298Z,11.05
2023-04-19T13:38:06.277Z,11.96
2023-04-19T13:40:34.373Z,11.53
2023-04-19T13:43:02.321Z,11.08
2023-04-19T13:45:30.241Z,10.60
2023-04-19T13:47:58.377Z,10.00
2023-04-19T13:50:27.723Z,10.08
2023-04-19T13:52:55.778Z,9.47
2023-04-19T13:55:23.800Z,9.82
2023-04-19T13:57:51.715Z,9.02
2023-04-19T14:00:21.313Z,9.37
2023-04-19T14:02:52.145Z,8.23
2023-04-19T14:05:20.719Z,8.73
2023-04-19T14:07:50.111Z,9.13
2023-04-19T14:10:18.112Z,9.92
2023-04-19T14:12:46.126Z,9.69
2023-04-19T14:15:14.398Z,9.06
2023-04-19T14:17:42.351Z,9.54
2023-04-19T14:20:11.237Z,9.33
2023-04-19T14:22:39.416Z,9.76
2023-04-19T14:25:09.450Z,8.94
2023-04-19T14:27:38.395Z,10.08
2023-04-19T14:30:07.494Z,9.40
2023-04-19T14:32:35.671Z,8.63
2023-04-19T14:35:03.757Z,8.69
2023-04-19T14:37:31.803Z,9.37
2023-04-19T14:39:59.749Z,8.50
2023-04-19T14:42:29.068Z,7.42
2023-04-19T14:44:56.970Z,8.98
2023-04-19T14:47:25.084Z,9.23
2023-04-19T14:49:53.294Z,8.60
2023-04-19T14:52:21.439Z,9.24
2023-04-19T14:54:49.365Z,9.09
2023-04-19T14:57:17.440Z,8.91
2023-04-19T14:59:46.900Z,8.61
2023-04-19T15:02:14.933Z,9.66
2023-04-19T15:04:43.154Z,9.05
2023-04-19T15:07:11.302Z,8.82
2023-04-19T15:09:40.233Z,9.21
2023-04-19T15:12:08.191Z,9.17
2023-04-19T15:14:36.205Z,9.10
2023-04-19T15:17:05.478Z,10.80
2023-04-19T15:19:33.449Z,11.84
2023-04-19T15:22:01.297Z,12.03
2023-04-19T15:24:29.220Z,13.23
2023-04-19T15:26:58.821Z,13.72
2023-04-19T15:29:26.809Z,12.97
2023-04-19T15:31:54.790Z,13.43
2023-04-19T15:34:25.353Z,12.77
2023-04-19T15:36:53.312Z,12.76
2023-04-19T15:39:21.203Z,13.18
2023-04-19T15:41:49.206Z,13.23
2023-04-19T15:44:17.141Z,12.73
2023-04-19T15:46:44.965Z,13.91
2023-04-19T15:49:13.001Z,15.29
2023-04-19T15:51:42.295Z,13.91
2023-04-19T15:54:11.079Z,14.23
2023-04-19T15:56:39.015Z,14.67
2023-04-19T15:59:06.946Z,15.28
2023-04-19T16:01:34.920Z,13.20
2023-04-19T16:04:04.140Z,14.37
2023-04-19T16:06:32.373Z,16.11
2023-04-19T16:09:01.663Z,15.65
2023-04-19T16:11:29.704Z,15.44
2023-04-19T16:13:57.692Z,14.66
2023-04-19T16:16:26.684Z,15.48
2023-04-19T16:18:54.616Z,16.08
2023-04-19T16:21:22.538Z,16.12
2023-04-19T16:23:50.526Z,17.38
2023-04-19T16:26:19.738Z,17.44
2023-04-19T16:28:48.225Z,17.41
2023-04-19T16:31:16.231Z,17.76
2023-04-19T16:33:44.140Z,17.80
2023-04-19T16:36:12.043Z,16.88
2023-04-19T16:38:39.910Z,15.94
2023-04-19T16:41:07.782Z,15.02
2023-04-19T16:43:37.274Z,13.31
2023-04-19T16:46:07.051Z,13.86
2023-04-19T16:48:35.138Z,15.17
2023-04-19T16:51:03.184Z,17.30
2023-04-19T16:53:32.361Z,19.14
2023-04-19T16:56:03.392Z,19.80
2023-04-19T16:58:31.751Z,18.01
2023-04-19T17:01:02.607Z,14.73
2023-04-19T17:03:30.707Z,15.26
2023-04-19T17:05:58.870Z,18.22
2023-04-19T17:08:26.900Z,19.51
2023-04-19T17:10:54.785Z,20.84
2023-04-19T17:13:22.693Z,21.37
2023-04-19T17:15:50.658Z,20.65
2023-04-19T17:18:20.000Z,20.63
2023-04-19T17:20:48.078Z,18.31
2023-04-19T17:23:16.029Z,18.90
2023-04-19T17:25:44.066Z,17.27
2023-04-19T17:28:11.927Z,17.96
2023-04-19T17:30:40.854Z,17.85
2023-04-19T17:33:08.784Z,17.96
2023-04-19T17:35:38.214Z,18.13
2023-04-19T17:38:06.251Z,18.67
2023-04-19T17:40:34.074Z,19.43
2023-04-19T17:43:02.130Z,19.48
2023-04-19T17:45:30.028Z,20.64
2023-04-19T17:47:58.031Z,21.54
2023-04-19T17:50:26.601Z,21.79
2023-04-19T17:52:56.103Z,20.51
2023-04-19T17:55:25.492Z,21.17
2023-04-19T17:57:53.391Z,21.01
2023-04-19T18:00:21.785Z,21.86
2023-04-19T18:02:50.404Z,23.33
2023-04-19T18:05:18.603Z,24.71
2023-04-19T18:07:46.473Z,24.92
2023-04-19T18:10:15.763Z,25.71
2023-04-19T18:12:43.633Z,26.26
2023-04-19T18:15:12.475Z,26.52
2023-04-19T18:17:41.306Z,26.13
2023-04-19T18:20:11.866Z,26.70
2023-04-19T18:22:41.812Z,26.96
2023-04-19T18:25:10.949Z,26.76
2023-04-19T18:27:40.307Z,27.37
2023-04-19T18:30:09.405Z,26.82
2023-04-19T18:32:37.968Z,27.83
2023-04-19T18:35:08.799Z,26.96
2023-04-19T18:37:36.859Z,28.77
2023-04-19T18:40:07.342Z,28.68
2023-04-19T18:42:35.363Z,28.55
2023-04-19T18:45:05.997Z,28.29
2023-04-19T18:47:33.967Z,28.39
2023-04-19T18:50:05.697Z,28.89
2023-04-19T18:52:35.185Z,28.74
2023-04-19T18:55:03.302Z,28.99
2023-04-19T18:57:34.705Z,28.93
2023-04-19T19:00:06.648Z,30.43
2023-04-19T19:02:37.010Z,29.43
2023-04-19T19:05:08.205Z,30.49
2023-04-19T19:07:51.407Z,30.42
2023-04-19T19:10:22.386Z,30.50
2023-04-19T19:12:54.612Z,29.56
2023-04-19T19:15:23.941Z,30.45
2023-04-19T19:17:51.861Z,29.88
2023-04-19T19:20:20.156Z,30.24
2023-04-19T19:22:48.278Z,30.58
2023-04-19T19:25:16.453Z,31.13
2023-04-19T19:27:58.455Z,31.44
2023-04-19T19:30:34.765Z,31.75
2023-04-19T19:33:04.772Z,31.23
2023-04-19T19:35:34.754Z,31.78
2023-04-19T19:38:02.872Z,32.68
2023-04-19T19:40:32.388Z,31.73
2023-04-19T19:43:01.329Z,31.60
2023-04-19T19:45:29.979Z,32.92
2023-04-19T19:48:00.712Z,32.23
2023-04-19T19:53:00.646Z,32.88
2023-04-19T19:55:28.912Z,32.28
2023-04-19T20:03:00.292Z,33.92
2023-04-19T20:05:29.086Z,32.62
2023-04-19T20:08:07.960Z,33.52
2023-04-19T20:10:36.697Z,33.59
2023-04-19T20:13:06.226Z,34.52
2023-04-19T20:15:34.875Z,34.00
2023-04-19T20:18:04.652Z,34.59
2023-04-19T20:20:32.875Z,33.61
2023-04-19T20:23:00.762Z,34.59
2023-04-19T20:25:28.682Z,34.42
2023-04-19T20:27:56.602Z,34.78
2023-04-19T20:30:24.768Z,34.63
2023-04-19T20:32:52.842Z,34.96
2023-04-19T20:35:23.187Z,36.06
2023-04-19T20:37:52.037Z,35.54
2023-04-19T20:40:20.017Z,35.22
2023-04-19T20:42:48.063Z,35.46
2023-04-19T20:45:16.105Z,35.79
2023-04-19T20:47:44.091Z,35.22
2023-04-19T20:50:12.305Z,35.92
2023-04-19T20:52:41.767Z,35.62
2023-04-19T20:55:10.425Z,35.58
2023-04-19T20:57:38.339Z,35.97
2023-04-19T21:00:08.834Z,36.70
2023-04-19T21:02:36.973Z,36.22
2023-04-19T21:05:05.381Z,36.00
2023-04-19T21:07:33.606Z,36.18
2023-04-19T21:10:02.951Z,36.35
2023-04-19T21:12:30.946Z,35.76
2023-04-19T21:15:00.389Z,35.32
2023-04-19T21:17:28.856Z,35.01
2023-04-19T21:19:56.762Z,36.08
2023-04-19T21:22:24.733Z,35.52
2023-04-19T21:24:52.581Z,34.78
2023-04-19T21:27:21.889Z,34.77
2023-04-19T21:29:50.107Z,34.95
2023-04-19T21:32:18.489Z,35.47
2023-04-19T21:34:48.110Z,35.54
2023-04-19T21:37:16.474Z,35.09
2023-04-19T21:39:44.364Z,35.58
2023-04-19T21:42:12.353Z,35.40
2023-04-19T21:44:41.647Z,35.47
2023-04-19T21:47:09.958Z,35.05
2023-04-19T21:49:38.099Z,35.25
2023-04-19T21:52:06.993Z,35.55
2023-04-19T21:54:35.172Z,34.80
2023-04-19T21:57:03.431Z,35.33
2023-04-19T21:59:31.792Z,35.51
2023-04-19T22:02:01.303Z,35.11
2023-04-19T22:04:30.952Z,35.00
2023-04-19T22:07:02.203Z,34.50
2023-04-19T22:09:30.763Z,34.91
2023-04-19T22:12:00.157Z,34.93
2023-04-19T22:14:28.461Z,35.29
2023-04-19T22:16:56.660Z,35.25
2023-04-19T22:19:26.051Z,34.71
2023-04-19T22:21:55.087Z,34.59
2023-04-19T22:24:23.278Z,34.43
2023-04-19T22:26:53.012Z,34.79
2023-04-19T22:29:21.397Z,34.42
2023-04-19T22:31:49.382Z,34.11
2023-04-19T22:34:17.495Z,33.92
2023-04-19T22:36:46.802Z,33.85
2023-04-19T22:39:16.117Z,34.11
2023-04-19T22:41:44.309Z,33.93
2023-04-19T22:44:12.178Z,34.14
2023-04-19T22:46:40.301Z,34.46
2023-04-19T22:49:10.107Z,33.94
2023-04-19T22:51:38.486Z,33.43
2023-04-19T22:54:07.821Z,34.10
2023-04-19T22:56:35.772Z,34.03
2023-04-19T22:59:03.718Z,34.32
2023-04-19T23:01:31.849Z,34.71
2023-04-19T23:03:59.913Z,34.41
2023-04-19T23:06:29.092Z,34.70
2023-04-19T23:08:57.346Z,34.71
2023-04-19T23:11:26.925Z,34.68
2023-04-19T23:13:54.862Z,34.39
2023-04-19T23:16:24.494Z,34.71
2023-04-19T23:18:52.738Z,33.65
2023-04-19T23:21:20.705Z,33.62
2023-04-19T23:23:48.617Z,34.10
2023-04-19T23:26:16.536Z,33.54
2023-04-19T23:28:45.828Z,33.79
2023-04-19T23:31:13.815Z,33.66
2023-04-19T23:33:41.798Z,34.88
2023-04-19T23:36:10.074Z,34.15
2023-04-19T23:38:37.933Z,34.40
2023-04-19T23:41:05.990Z,34.52
2023-04-19T23:43:33.851Z,35.12
2023-04-19T23:46:03.166Z,34.83
2023-04-19T23:48:31.210Z,34.27
2023-04-19T23:50:59.181Z,35.31
2023-04-19T23:53:27.209Z,35.26
2023-04-19T23:55:55.075Z,35.27
2023-04-19T23:58:23.045Z,35.45
